• Join FlightAware (Why Join?)
  • Login
  • US Flag 
06:56AM EDT


 

Airport Tracker/Info


-or-


 

Live Flight TrackerFlight Track Log ✈ N901QS ✈ 12-Jun-2013 ✈ KBAF - KTEB

Flight Track Log - Related Links

Times and Time Zones

All times are in EDT time to prevent confusion due to time zone crossing. See the N901QS flight status page for this flight to view local times or setup timezone preferences in your user account.

Time Position Orientation Groundspeed Altitude Reporting Facility
EDT Latitude Longitude Course Direction KTS MPH feet Rate Location/Type
06:33AM 42.1708 -72.7144 North 185 213 1,300  Level Boston Center
06:33AM 42.2022 -72.7119 North 198 228 4,100 3,600 Climbing Boston Center
06:34AM 42.2250 -72.7400 318° Northwest 236 272 5,900 3,300 Climbing Boston Center
06:35AM 42.2206 -72.7878 263° West 255 293 7,500 3,780 Climbing Boston Center
06:35AM 42.2058 -72.8522 253° West 278 320 9,700 2,220 Climbing Boston Center
06:36AM 42.1972 -72.8969 255° West 287 330 10,000 360 Climbing Boston Center
06:36AM 42.1844 -72.9611 255° West 313 360 10,100  Climbing Boston Center
06:37AM 42.1608 -73.0928 256° West 345 397 10,000 -60 Descending Boston Center
06:38AM 42.1331 -73.2239 254° West 367 422 10,000 -60 Level Boston Center
06:39AM 42.1194 -73.3581 262° West 367 422 9,900 -60 Descending Boston Center
06:40AM 42.0872 -73.4864 251° West 367 422 9,900  Level Boston Center
06:41AM 42.0172 -73.5942 229° Southwest 366 421 10,000  Climbing Boston Center
06:42AM 41.9600 -73.6936 232° Southwest 388 447 10,000  Level Boston Center
06:43AM 41.8856 -73.8147 230° Southwest 382 440 10,000 -180 Level Boston Center
06:44AM 41.8261 -73.9139 231° Southwest 388 447 9,700 -540 Descending Boston Center
06:45AM 41.7642 -74.0181 231° Southwest 351 404 9,000 -960 Descending Boston Center
06:46AM 41.7172 -74.0922 230° Southwest 312 359 7,800 -960 Descending Boston Center
06:47AM 41.6617 -74.1822 230° Southwest 292 336 7,100 -360 Descending Boston Center
06:48AM 41.6125 -74.2644 231° Southwest 292 336 7,100  Level Boston Center
06:49AM 41.5633 -74.3433 230° Southwest 292 336 7,100  Level Boston Center
06:50AM 41.5139 -74.4250 231° Southwest 292 336 7,100  Level Boston Center
06:51AM 41.4667 -74.5011 230° Southwest 286 329 7,100 -300 Level Boston Center
06:52AM 41.4194 -74.5772 230° Southwest 281 323 6,500 -600 Descending Boston Center
06:53AM 41.3667 -74.6000 198° South 284 327 6,100 -300 Descending New York TRACON
06:54AM 41.3000 -74.6333 201° Southwest 302 348 6,100 -180 Level New York TRACON
06:55AM 41.2167 -74.6167 171° South 311 358 5,800 -840 Descending New York TRACON
06:56AM 41.1500 -74.6000 169° South 302 348 4,600 -900 Descending New York TRACON
06:57AM 41.0667 -74.5833 171° South 295 339 4,100 -360 Descending New York TRACON
06:57AM 40.9833 -74.5667 171° South 283 326 4,000 -600 Descending New York TRACON
06:58AM 40.9167 -74.5500 169° South 285 328 3,000 -540 Descending New York TRACON
06:59AM 40.8500 -74.5000 150° Southeast 266 306 3,000  Level New York TRACON
07:00AM 40.7833 -74.4500 150° Southeast 291 335 3,000  Level New York TRACON
07:01AM 40.7500 -74.3667 118° Southeast 262 302 3,000 -480 Level New York TRACON
07:02AM 40.7000 -74.3000 135° Southeast 247 284 2,100 -660 Descending New York TRACON
07:03AM 40.7333 -74.2333 57° Northeast 199 229 1,700 -300 Descending New York TRACON
07:04AM 40.7667 -74.1833 49° Northeast 200 230 1,600 -120 Descending New York TRACON
07:05AM 40.8000 -74.1500 37° Northeast 160 184 1,500 -420 Descending New York TRACON
07:06AM 40.8167 -74.1000 66° East 135 155 900 -720 Descending New York TRACON
07:08AM 40.8500 -74.0500 67° East  Level FlightAware Approximate
07:15AM 40.8501 -74.0608 67° East  Level Estimated
07:16AM 40.8501 -74.0608 67° East  Level Estimated